x

Buoy M01 - Jordan Basin (44037) Weather Station

9:04pm - Fri 5th Feb 2016 All times are EST. -5 hours from GMT.

  • Wind
    45mph, 54mph gusts
  • Air Temp 31°f
  • Sea Pressure 1014.1mb
  • Buoy M01 - Jordan Basin
  • Buoy M01 - Jordan Basin

More Historic Weather Station data

Upgrade to MSW Pro to gain access to the past 30 days of data for over 8000 Wavebouys and Weather Stations around the globe.

Join Pro

Comparision Forecast

View Surf forecast
   
Fri 02/05 9:04pm  -   -  45 54 mph 1014.1mb - 31f
7:04pm 12.5ft 8s 38 49 mph - 43f 33f
6:04pm 12.5ft 8s 40 49 mph - 43f 33f
4:04pm 11ft 6s 31 40 mph 1009.5mb 43f 34f
2:04pm  -   -  29 36 mph 1008.3mb - 35f
11:04am 9ft 6s 29 34 mph 1013.7mb 43f 36f
10:04am 8ft 6s 27 34 mph 1014mb 43f 37f
9:04am 8ft 11s 27 34 mph 1014.5mb 43f 37f
8:04am 7ft 11s 27 31 mph 1014.8mb 43f 38f
7:04am 7ft 11s 22 27 mph 1016.1mb 43f 38f
6:04am 8ft 11s 22 27 mph 1016.4mb 43f 38f
5:04am 7.5ft 11s 22 25 mph 1016.8mb 43f 39f
4:04am 7ft 8s 22 27 mph 1017mb 43f 40f
3:04am 8.5ft 11s 20 25 mph 1017mb 43f 41f
2:04am 6.5ft 11s 13 18 mph 1018.6mb 43f 42f
12:04am 7ft 8s 13 16 mph 1017mb 43f 43f
Thu 02/04 11:04pm 6ft 8s 16 20 mph 1016.9mb 43f 44f
10:04pm 6.5ft 8s 7 9 mph 1017.4mb 43f 44f
8:04pm  -   -  4 7 mph 1016.7mb - 44f
7:04pm 5.5ft 8s 2 4 mph 1016.4mb 43f 44f
6:04pm 5.5ft 6s 7 9 mph 1016mb 43f 44f
4:04pm 6ft 8s 4 7 mph 1014.1mb 43f 44f
3:04pm 6ft 8s 7
mph
1012.3mb 43f 46f
1:04pm 7ft 8s 11 13 mph 1012.7mb 43f 45f
12:04pm 6.5ft 8s 13 16 mph 1012.2mb 43f 46f
11:04am 7.5ft 8s 16 18 mph 1012.7mb 43f 46f
10:04am 9ft 8s 16 20 mph 1012.4mb 43f 46f
8:04am 10ft 8s 16 18 mph 1012.7mb 43f 46f
7:04am 10.5ft 8s  -  mph - 43f -
5:04am 11.5ft 8s 16 20 mph 1012.4mb 43f 47f
3:04am 14ft 8s 29 36 mph 1011.8mb 43f 49f
2:04am 11.5ft 8s 31 38 mph 1011.2mb 43f 50f
1:04am 13ft 8s 31 36 mph 1011.6mb 43f 48f
12:04am  -   -  34 43 mph 1013.5mb - 48f
Wed 02/03 11:04pm 15ft 8s 40 51 mph 1011.6mb 42f 48f
9:04pm 12ft 6s 40 47 mph 1014mb 43f 48f
7:04pm 9ft 8s 34 45 mph 1016.7mb 42f 46f
4:04pm 8ft 6s 29 36 mph 1019.6mb 42f 43f
1:04pm 7ft 6s  -  mph - 43f -
11:04am 6ft 5s 25 27 mph 1028.5mb 42f 39f
8:04am 3ft 4s 20 25 mph 1031mb 42f 38f
7:04am 3.5ft 8s 20 22 mph 1030.9mb 42f 38f
6:04am 4ft 11s  -  mph - 42f -
5:04am 3ft 11s 16 18 mph 1030.9mb 42f 38f
3:04am 2ft 4s 13 16 mph 1030.9mb 42f 36f
2:04am 3.5ft 11s  -  mph - 42f -
12:04am 4ft 11s 11 13 mph 1031.5mb 42f 37f
Tue 02/02 11:04pm 3ft 8s 13 16 mph 1031.1mb 42f 38f
10:04pm 2.5ft 8s 13 16 mph 1031mb 42f 37f
9:04pm 2.5ft 8s 7 9 mph 1030.5mb 42f 38f
8:04pm 3ft 8s 2 4 mph 1030.4mb 43f 37f
7:04pm 2.5ft 8s 4 7 mph 1029.4mb 43f 37f
6:04pm 3.5ft 8s 2
mph
1028.1mb 43f 37f
4:04pm 3.5ft 11s 2 4 mph 1025.8mb 43f 39f
3:04pm 3.5ft 11s 4 7 mph 1025.6mb 43f 39f
2:04pm 3.5ft 8s 7 9 mph 1025.2mb 43f 38f
1:04pm 4.5ft 8s 9 11 mph 1024.7mb 43f 38f
12:04pm 3.5ft 8s 9 11 mph 1024.2mb 43f 39f
11:04am 4.5ft 11s 9 11 mph 1024.4mb 43f 40f
10:04am 4.5ft 11s 9 11 mph 1024.2mb 43f 41f
9:04am  -   -  9 11 mph 1022.9mb - 41f
8:04am  -   -  7 9 mph 1021.8mb - 41f
6:04am 4.5ft 11s 11 16 mph 1019.9mb 42f 41f
5:04am 5ft 11s 16 18 mph 1019.1mb 42f 41f
4:04am 6ft 11s 13 16 mph 1017.9mb 42f 41f